Neavitt, Maryland
Current Conditions -  °F | °C
As of 1:26 AM on Thursday 23 Oct 2014 (Local Time) from KESN Reporting Station
Overcast Overcast  
Wind Chill: 56°   Ceiling: 3100
Heat Index: 56°   Visibility: 10mi
Dew Point: 48°   Wind: 22mph
Humidity: 76%   Direction: 340°NNW
Pressure: 29.87"   Gusts: 29mph
Location:  38.73°N, 76.28°W
Report Text: KESN 230526Z AUTO 34019G25KT 10SM BKN031 OVC060 13/09 A2987 RMK AO2 T01310089
Loading
Personal Weather Stations






























Interactive Weather Map
Tropical Storm Tracking
New forecast layout! Learn more

10-Day Weather Forecast

Advertisements
Track Severe Weather on mobile